sensor_id;sensor_type;location;lat;lon;timestamp;temperature;humidity
9544;DHT22;30418;51.45933468;7.33152330;2023-11-19T00:00:27;11.90;80.10
9544;DHT22;30418;51.45933468;7.33152330;2023-11-19T00:02:56;11.90;80.10
9544;DHT22;30418;51.45933468;7.33152330;2023-11-19T00:05:26;11.90;80.20
9544;DHT22;30418;51.45933468;7.33152330;2023-11-19T00:07:55;11.90;80.20
9544;DHT22;30418;51.45933468;7.33152330;2023-11-19T00:10:24;12.00;80.40
9544;DHT22;30418;51.45933468;7.33152330;2023-11-19T00:12:53;12.00;80.30
9544;DHT22;30418;51.45933468;7.33152330;2023-11-19T00:15:24;12.00;80.50
9544;DHT22;30418;51.45933468;7.33152330;2023-11-19T00:17:53;12.00;80.50
9544;DHT22;30418;51.45933468;7.33152330;2023-11-19T00:20:26;12.00;80.60
9544;DHT22;30418;51.45933468;7.33152330;2023-11-19T00:22:56;12.00;80.80
9544;DHT22;30418;51.45933468;7.33152330;2023-11-19T00:25:24;12.10;80.90
9544;DHT22;30418;51.45933468;7.33152330;2023-11-19T00:27:54;12.10;80.80
9544;DHT22;30418;51.45933468;7.33152330;2023-11-19T00:30:23;12.10;80.90
9544;DHT22;30418;51.45933468;7.33152330;2023-11-19T00:32:53;12.20;81.00
9544;DHT22;30418;51.45933468;7.33152330;2023-11-19T00:35:21;12.20;80.90
9544;DHT22;30418;51.45933468;7.33152330;2023-11-19T00:37:51;12.20;80.90
9544;DHT22;30418;51.45933468;7.33152330;2023-11-19T00:40:21;12.20;81.00
9544;DHT22;30418;51.45933468;7.33152330;2023-11-19T00:42:50;12.30;81.90
9544;DHT22;30418;51.45933468;7.33152330;2023-11-19T00:45:19;12.30;81.00
9544;DHT22;30418;51.45933468;7.33152330;2023-11-19T00:47:48;12.30;81.10
9544;DHT22;30418;51.45933468;7.33152330;2023-11-19T00:50:17;12.30;81.10
9544;DHT22;30418;51.45933468;7.33152330;2023-11-19T00:52:46;12.40;81.40
9544;DHT22;30418;51.45933468;7.33152330;2023-11-19T00:55:16;12.40;81.40
9544;DHT22;30418;51.45933468;7.33152330;2023-11-19T00:57:45;12.40;81.50
9544;DHT22;30418;51.45933468;7.33152330;2023-11-19T01:00:14;12.50;81.70
9544;DHT22;30418;51.45933468;7.33152330;2023-11-19T01:02:47;12.50;81.70
9544;DHT22;30418;51.45933468;7.33152330;2023-11-19T01:05:19;12.50;81.60
9544;DHT22;30418;51.45933468;7.33152330;2023-11-19T01:07:50;12.50;81.70
9544;DHT22;30418;51.45933468;7.33152330;2023-11-19T01:10:23;12.60;81.80
9544;DHT22;30418;51.45933468;7.33152330;2023-11-19T01:12:53;12.60;81.90
9544;DHT22;30418;51.45933468;7.33152330;2023-11-19T01:15:22;12.60;81.90
9544;DHT22;30418;51.45933468;7.33152330;2023-11-19T01:17:50;12.60;81.80
9544;DHT22;30418;51.45933468;7.33152330;2023-11-19T01:20:20;12.70;81.90
9544;DHT22;30418;51.45933468;7.33152330;2023-11-19T01:22:49;12.70;81.80
9544;DHT22;30418;51.45933468;7.33152330;2023-11-19T01:25:18;12.70;82.00
9544;DHT22;30418;51.45933468;7.33152330;2023-11-19T01:27:48;12.70;82.10
9544;DHT22;30418;51.45933468;7.33152330;2023-11-19T01:30:17;12.70;82.10
9544;DHT22;30418;51.45933468;7.33152330;2023-11-19T01:32:49;12.80;82.10
9544;DHT22;30418;51.45933468;7.33152330;2023-11-19T01:35:17;12.80;82.10
9544;DHT22;30418;51.45933468;7.33152330;2023-11-19T01:37:46;12.80;82.20
9544;DHT22;30418;51.45933468;7.33152330;2023-11-19T01:40:15;12.90;82.30
9544;DHT22;30418;51.45933468;7.33152330;2023-11-19T01:42:43;12.90;82.30
9544;DHT22;30418;51.45933468;7.33152330;2023-11-19T01:45:22;12.90;82.20
9544;DHT22;30418;51.45933468;7.33152330;2023-11-19T01:47:56;12.90;82.40
9544;DHT22;30418;51.45933468;7.33152330;2023-11-19T01:50:25;12.90;82.10
9544;DHT22;30418;51.45933468;7.33152330;2023-11-19T01:52:54;12.90;82.10
9544;DHT22;30418;51.45933468;7.33152330;2023-11-19T01:55:25;12.90;82.10
9544;DHT22;30418;51.45933468;7.33152330;2023-11-19T01:58:00;12.90;82.10
9544;DHT22;30418;51.45933468;7.33152330;2023-11-19T02:00:31;13.00;82.20
9544;DHT22;30418;51.45933468;7.33152330;2023-11-19T02:03:01;13.00;82.20
9544;DHT22;30418;51.45933468;7.33152330;2023-11-19T02:05:31;13.00;82.20
9544;DHT22;30418;51.45933468;7.33152330;2023-11-19T02:08:00;13.00;82.20
9544;DHT22;30418;51.45933468;7.33152330;2023-11-19T02:10:30;13.00;82.20
9544;DHT22;30418;51.45933468;7.33152330;2023-11-19T02:13:01;13.00;82.20
9544;DHT22;30418;51.45933468;7.33152330;2023-11-19T02:15:34;13.00;82.30
9544;DHT22;30418;51.45933468;7.33152330;2023-11-19T02:18:20;13.10;82.50
9544;DHT22;30418;51.45933468;7.33152330;2023-11-19T02:20:49;13.00;82.70
9544;DHT22;30418;51.45933468;7.33152330;2023-11-19T02:23:19;13.10;82.50
9544;DHT22;30418;51.45933468;7.33152330;2023-11-19T02:25:59;13.10;82.60
9544;DHT22;30418;51.45933468;7.33152330;2023-11-19T02:28:32;13.10;82.70
9544;DHT22;30418;51.45933468;7.33152330;2023-11-19T02:31:01;13.10;83.40
9544;DHT22;30418;51.45933468;7.33152330;2023-11-19T02:33:31;13.10;82.60
9544;DHT22;30418;51.45933468;7.33152330;2023-11-19T02:35:59;13.10;83.40
9544;DHT22;30418;51.45933468;7.33152330;2023-11-19T02:38:29;13.20;82.70
9544;DHT22;30418;51.45933468;7.33152330;2023-11-19T02:40:57;13.20;82.70
9544;DHT22;30418;51.45933468;7.33152330;2023-11-19T02:43:29;13.20;82.80
9544;DHT22;30418;51.45933468;7.33152330;2023-11-19T02:46:00;13.20;82.90
9544;DHT22;30418;51.45933468;7.33152330;2023-11-19T02:48:42;13.20;82.90
9544;DHT22;30418;51.45933468;7.33152330;2023-11-19T02:51:11;13.20;82.80
9544;DHT22;30418;51.45933468;7.33152330;2023-11-19T02:53:40;13.30;82.90
9544;DHT22;30418;51.45933468;7.33152330;2023-11-19T02:56:11;13.30;82.90
9544;DHT22;30418;51.45933468;7.33152330;2023-11-19T02:58:47;13.30;82.90
9544;DHT22;30418;51.45933468;7.33152330;2023-11-19T03:01:23;13.30;83.10
9544;DHT22;30418;51.45933468;7.33152330;2023-11-19T03:03:59;13.30;83.20
9544;DHT22;30418;51.45933468;7.33152330;2023-11-19T03:06:29;13.30;82.90
9544;DHT22;30418;51.45933468;7.33152330;2023-11-19T03:08:59;13.30;83.00
9544;DHT22;30418;51.45933468;7.33152330;2023-11-19T03:11:33;13.40;83.10
9544;DHT22;30418;51.45933468;7.33152330;2023-11-19T03:14:01;13.40;83.20
9544;DHT22;30418;51.45933468;7.33152330;2023-11-19T03:16:32;13.40;83.20
9544;DHT22;30418;51.45933468;7.33152330;2023-11-19T03:19:01;13.40;83.30
9544;DHT22;30418;51.45933468;7.33152330;2023-11-19T03:21:31;13.40;83.30
9544;DHT22;30418;51.45933468;7.33152330;2023-11-19T03:24:01;13.40;83.30
9544;DHT22;30418;51.45933468;7.33152330;2023-11-19T03:26:29;13.40;83.30
9544;DHT22;30418;51.45933468;7.33152330;2023-11-19T03:28:58;13.50;83.40
9544;DHT22;30418;51.45933468;7.33152330;2023-11-19T03:31:27;13.50;83.30
9544;DHT22;30418;51.45933468;7.33152330;2023-11-19T03:33:57;13.50;83.30
9544;DHT22;30418;51.45933468;7.33152330;2023-11-19T03:36:32;13.50;83.40
9544;DHT22;30418;51.45933468;7.33152330;2023-11-19T03:39:01;13.50;83.50
9544;DHT22;30418;51.45933468;7.33152330;2023-11-19T03:41:30;13.50;83.40
9544;DHT22;30418;51.45933468;7.33152330;2023-11-19T03:44:02;13.60;83.50
9544;DHT22;30418;51.45933468;7.33152330;2023-11-19T03:46:31;13.50;83.40
9544;DHT22;30418;51.45933468;7.33152330;2023-11-19T03:49:01;13.60;83.50
9544;DHT22;30418;51.45933468;7.33152330;2023-11-19T03:51:33;13.60;83.90
9544;DHT22;30418;51.45933468;7.33152330;2023-11-19T03:54:02;13.60;83.70
9544;DHT22;30418;51.45933468;7.33152330;2023-11-19T03:56:31;13.60;83.70
9544;DHT22;30418;51.45933468;7.33152330;2023-11-19T03:59:00;13.60;83.60
9544;DHT22;30418;51.45933468;7.33152330;2023-11-19T04:01:28;13.70;83.60
9544;DHT22;30418;51.45933468;7.33152330;2023-11-19T04:03:57;13.70;84.40
9544;DHT22;30418;51.45933468;7.33152330;2023-11-19T04:06:27;13.70;83.50
9544;DHT22;30418;51.45933468;7.33152330;2023-11-19T04:08:56;13.70;83.40
9544;DHT22;30418;51.45933468;7.33152330;2023-11-19T04:11:25;13.70;83.20
9544;DHT22;30418;51.45933468;7.33152330;2023-11-19T04:13:53;13.70;83.10
9544;DHT22;30418;51.45933468;7.33152330;2023-11-19T04:16:26;13.70;83.00
9544;DHT22;30418;51.45933468;7.33152330;2023-11-19T04:18:56;13.70;83.00
9544;DHT22;30418;51.45933468;7.33152330;2023-11-19T04:21:26;13.70;82.90
9544;DHT22;30418;51.45933468;7.33152330;2023-11-19T04:23:55;13.70;82.80
9544;DHT22;30418;51.45933468;7.33152330;2023-11-19T04:26:23;13.70;82.70
9544;DHT22;30418;51.45933468;7.33152330;2023-11-19T04:28:52;13.60;82.60
9544;DHT22;30418;51.45933468;7.33152330;2023-11-19T04:31:20;13.60;82.40
9544;DHT22;30418;51.45933468;7.33152330;2023-11-19T04:33:49;13.60;82.50
9544;DHT22;30418;51.45933468;7.33152330;2023-11-19T04:36:19;13.60;82.40
9544;DHT22;30418;51.45933468;7.33152330;2023-11-19T04:38:52;13.60;82.40
9544;DHT22;30418;51.45933468;7.33152330;2023-11-19T04:41:21;13.60;82.60
9544;DHT22;30418;51.45933468;7.33152330;2023-11-19T04:43:49;13.60;82.50
9544;DHT22;30418;51.45933468;7.33152330;2023-11-19T04:46:18;13.60;82.40
9544;DHT22;30418;51.45933468;7.33152330;2023-11-19T04:48:46;13.60;82.40
9544;DHT22;30418;51.45933468;7.33152330;2023-11-19T04:51:15;13.60;82.50
9544;DHT22;30418;51.45933468;7.33152330;2023-11-19T04:53:44;13.60;82.40
9544;DHT22;30418;51.45933468;7.33152330;2023-11-19T04:56:14;13.50;82.20
9544;DHT22;30418;51.45933468;7.33152330;2023-11-19T04:58:43;13.50;82.20
9544;DHT22;30418;51.45933468;7.33152330;2023-11-19T05:01:14;13.50;82.20
9544;DHT22;30418;51.45933468;7.33152330;2023-11-19T05:03:44;13.50;82.20
9544;DHT22;30418;51.45933468;7.33152330;2023-11-19T05:06:13;13.50;82.10
9544;DHT22;30418;51.45933468;7.33152330;2023-11-19T05:08:43;13.50;82.10
9544;DHT22;30418;51.45933468;7.33152330;2023-11-19T05:11:14;13.50;82.10
9544;DHT22;30418;51.45933468;7.33152330;2023-11-19T05:13:45;13.50;82.10
9544;DHT22;30418;51.45933468;7.33152330;2023-11-19T05:16:14;13.50;82.00
9544;DHT22;30418;51.45933468;7.33152330;2023-11-19T05:18:42;13.50;82.10
9544;DHT22;30418;51.45933468;7.33152330;2023-11-19T05:21:11;13.50;82.00
9544;DHT22;30418;51.45933468;7.33152330;2023-11-19T05:23:40;13.50;82.00
9544;DHT22;30418;51.45933468;7.33152330;2023-11-19T05:26:09;13.50;82.00
9544;DHT22;30418;51.45933468;7.33152330;2023-11-19T05:28:39;13.50;81.90
9544;DHT22;30418;51.45933468;7.33152330;2023-11-19T05:31:07;13.50;82.00
9544;DHT22;30418;51.45933468;7.33152330;2023-11-19T05:33:36;13.50;81.90
9544;DHT22;30418;51.45933468;7.33152330;2023-11-19T05:36:06;13.50;82.00
9544;DHT22;30418;51.45933468;7.33152330;2023-11-19T05:38:35;13.50;82.00
9544;DHT22;30418;51.45933468;7.33152330;2023-11-19T05:41:04;13.50;82.00
9544;DHT22;30418;51.45933468;7.33152330;2023-11-19T05:43:33;13.60;82.00
9544;DHT22;30418;51.45933468;7.33152330;2023-11-19T05:46:04;13.60;82.10
9544;DHT22;30418;51.45933468;7.33152330;2023-11-19T05:48:46;13.60;82.10
9544;DHT22;30418;51.45933468;7.33152330;2023-11-19T05:51:15;13.60;81.90
9544;DHT22;30418;51.45933468;7.33152330;2023-11-19T05:53:44;13.60;82.00
9544;DHT22;30418;51.45933468;7.33152330;2023-11-19T05:56:13;13.60;81.90
9544;DHT22;30418;51.45933468;7.33152330;2023-11-19T05:58:43;13.60;82.00
9544;DHT22;30418;51.45933468;7.33152330;2023-11-19T06:01:13;13.60;81.90
9544;DHT22;30418;51.45933468;7.33152330;2023-11-19T06:03:42;13.60;81.90
9544;DHT22;30418;51.45933468;7.33152330;2023-11-19T06:06:14;13.60;81.80
9544;DHT22;30418;51.45933468;7.33152330;2023-11-19T06:08:43;13.60;81.80
9544;DHT22;30418;51.45933468;7.33152330;2023-11-19T06:11:12;13.60;81.70
9544;DHT22;30418;51.45933468;7.33152330;2023-11-19T06:13:46;13.60;81.80
9544;DHT22;30418;51.45933468;7.33152330;2023-11-19T06:16:16;13.60;81.70
9544;DHT22;30418;51.45933468;7.33152330;2023-11-19T06:18:45;13.60;81.50
9544;DHT22;30418;51.45933468;7.33152330;2023-11-19T06:21:14;13.60;81.40
9544;DHT22;30418;51.45933468;7.33152330;2023-11-19T06:23:43;13.60;81.30
9544;DHT22;30418;51.45933468;7.33152330;2023-11-19T06:26:11;13.60;81.20
9544;DHT22;30418;51.45933468;7.33152330;2023-11-19T06:28:41;13.60;81.20
9544;DHT22;30418;51.45933468;7.33152330;2023-11-19T06:31:09;13.60;81.20
9544;DHT22;30418;51.45933468;7.33152330;2023-11-19T06:33:39;13.60;81.20
9544;DHT22;30418;51.45933468;7.33152330;2023-11-19T06:36:09;13.60;81.20
9544;DHT22;30418;51.45933468;7.33152330;2023-11-19T06:38:37;13.60;81.10
9544;DHT22;30418;51.45933468;7.33152330;2023-11-19T06:41:07;13.60;81.10
9544;DHT22;30418;51.45933468;7.33152330;2023-11-19T06:43:37;13.60;81.10
9544;DHT22;30418;51.45933468;7.33152330;2023-11-19T06:46:15;13.60;81.00
9544;DHT22;30418;51.45933468;7.33152330;2023-11-19T06:48:45;13.60;81.10
9544;DHT22;30418;51.45933468;7.33152330;2023-11-19T06:51:14;13.60;81.10
9544;DHT22;30418;51.45933468;7.33152330;2023-11-19T06:53:43;13.60;81.10
9544;DHT22;30418;51.45933468;7.33152330;2023-11-19T06:56:20;13.60;81.00
9544;DHT22;30418;51.45933468;7.33152330;2023-11-19T06:58:49;13.60;80.90
9544;DHT22;30418;51.45933468;7.33152330;2023-11-19T07:01:18;13.60;80.80
9544;DHT22;30418;51.45933468;7.33152330;2023-11-19T07:03:48;13.60;80.70
9544;DHT22;30418;51.45933468;7.33152330;2023-11-19T07:06:18;13.60;80.60
9544;DHT22;30418;51.45933468;7.33152330;2023-11-19T07:09:01;13.50;80.40
9544;DHT22;30418;51.45933468;7.33152330;2023-11-19T07:11:37;13.60;80.40
9544;DHT22;30418;51.45933468;7.33152330;2023-11-19T07:14:06;13.50;80.30
9544;DHT22;30418;51.45933468;7.33152330;2023-11-19T07:16:35;13.50;80.30
9544;DHT22;30418;51.45933468;7.33152330;2023-11-19T07:19:07;13.50;80.20
9544;DHT22;30418;51.45933468;7.33152330;2023-11-19T07:21:36;13.50;81.00
9544;DHT22;30418;51.45933468;7.33152330;2023-11-19T07:24:07;13.50;80.10
9544;DHT22;30418;51.45933468;7.33152330;2023-11-19T07:26:35;13.50;80.10
9544;DHT22;30418;51.45933468;7.33152330;2023-11-19T07:29:04;13.50;80.00
9544;DHT22;30418;51.45933468;7.33152330;2023-11-19T07:31:34;13.50;80.00
9544;DHT22;30418;51.45933468;7.33152330;2023-11-19T07:34:04;13.50;80.00
9544;DHT22;30418;51.45933468;7.33152330;2023-11-19T07:36:34;13.50;80.00
9544;DHT22;30418;51.45933468;7.33152330;2023-11-19T07:39:03;13.50;79.80
9544;DHT22;30418;51.45933468;7.33152330;2023-11-19T07:41:32;13.50;79.80
9544;DHT22;30418;51.45933468;7.33152330;2023-11-19T07:44:05;13.50;79.80
9544;DHT22;30418;51.45933468;7.33152330;2023-11-19T07:46:33;13.40;79.60
9544;DHT22;30418;51.45933468;7.33152330;2023-11-19T07:49:02;13.40;79.60
9544;DHT22;30418;51.45933468;7.33152330;2023-11-19T07:51:31;13.40;79.70
9544;DHT22;30418;51.45933468;7.33152330;2023-11-19T07:54:01;13.40;79.60
9544;DHT22;30418;51.45933468;7.33152330;2023-11-19T07:56:29;13.40;79.60
9544;DHT22;30418;51.45933468;7.33152330;2023-11-19T07:58:58;13.40;79.60
9544;DHT22;30418;51.45933468;7.33152330;2023-11-19T08:01:26;13.40;79.60
9544;DHT22;30418;51.45933468;7.33152330;2023-11-19T08:03:55;13.40;79.50
9544;DHT22;30418;51.45933468;7.33152330;2023-11-19T08:06:25;13.40;79.50
9544;DHT22;30418;51.45933468;7.33152330;2023-11-19T08:08:54;13.40;79.40
9544;DHT22;30418;51.45933468;7.33152330;2023-11-19T08:11:24;13.40;79.40
9544;DHT22;30418;51.45933468;7.33152330;2023-11-19T08:13:53;13.40;79.40
9544;DHT22;30418;51.45933468;7.33152330;2023-11-19T08:16:22;13.40;79.40
9544;DHT22;30418;51.45933468;7.33152330;2023-11-19T08:18:50;13.30;79.30
9544;DHT22;30418;51.45933468;7.33152330;2023-11-19T08:21:19;13.30;79.30
9544;DHT22;30418;51.45933468;7.33152330;2023-11-19T08:23:49;13.40;79.50
9544;DHT22;30418;51.45933468;7.33152330;2023-11-19T08:26:18;13.40;79.50
9544;DHT22;30418;51.45933468;7.33152330;2023-11-19T08:28:49;13.40;79.40
9544;DHT22;30418;51.45933468;7.33152330;2023-11-19T08:31:19;13.40;79.40
9544;DHT22;30418;51.45933468;7.33152330;2023-11-19T08:33:47;13.40;79.40
9544;DHT22;30418;51.45933468;7.33152330;2023-11-19T08:36:16;13.40;79.40
9544;DHT22;30418;51.45933468;7.33152330;2023-11-19T08:38:45;13.40;79.40
9544;DHT22;30418;51.45933468;7.33152330;2023-11-19T08:41:16;13.40;79.30
9544;DHT22;30418;51.45933468;7.33152330;2023-11-19T08:43:45;13.40;79.30
9544;DHT22;30418;51.45933468;7.33152330;2023-11-19T08:46:15;13.40;79.30
9544;DHT22;30418;51.45933468;7.33152330;2023-11-19T08:48:44;13.40;79.30
9544;DHT22;30418;51.45933468;7.33152330;2023-11-19T08:51:13;13.40;79.30
9544;DHT22;30418;51.45933468;7.33152330;2023-11-19T08:53:41;13.40;79.30
9544;DHT22;30418;51.45933468;7.33152330;2023-11-19T08:56:09;13.40;79.40
9544;DHT22;30418;51.45933468;7.33152330;2023-11-19T08:58:39;13.50;79.50
9544;DHT22;30418;51.45933468;7.33152330;2023-11-19T09:01:07;13.50;79.50
9544;DHT22;30418;51.45933468;7.33152330;2023-11-19T09:03:38;13.50;79.40
9544;DHT22;30418;51.45933468;7.33152330;2023-11-19T09:06:08;13.50;79.40
9544;DHT22;30418;51.45933468;7.33152330;2023-11-19T09:08:36;13.50;79.30
9544;DHT22;30418;51.45933468;7.33152330;2023-11-19T09:11:07;13.50;79.90
9544;DHT22;30418;51.45933468;7.33152330;2023-11-19T09:13:36;13.60;79.30
9544;DHT22;30418;51.45933468;7.33152330;2023-11-19T09:16:05;13.60;79.10
9544;DHT22;30418;51.45933468;7.33152330;2023-11-19T09:18:35;13.60;79.10
9544;DHT22;30418;51.45933468;7.33152330;2023-11-19T09:21:06;13.60;79.10
9544;DHT22;30418;51.45933468;7.33152330;2023-11-19T09:23:34;13.60;79.00
9544;DHT22;30418;51.45933468;7.33152330;2023-11-19T09:26:06;13.60;78.90
9544;DHT22;30418;51.45933468;7.33152330;2023-11-19T09:28:37;13.60;78.90
9544;DHT22;30418;51.45933468;7.33152330;2023-11-19T09:31:13;13.60;78.80
9544;DHT22;30418;51.45933468;7.33152330;2023-11-19T09:33:43;13.70;78.90
9544;DHT22;30418;51.45933468;7.33152330;2023-11-19T09:36:12;13.70;78.90
9544;DHT22;30418;51.45933468;7.33152330;2023-11-19T09:38:41;13.70;78.80
9544;DHT22;30418;51.45933468;7.33152330;2023-11-19T09:41:10;13.70;78.80
9544;DHT22;30418;51.45933468;7.33152330;2023-11-19T09:43:41;13.70;78.80
9544;DHT22;30418;51.45933468;7.33152330;2023-11-19T09:46:10;13.70;78.70
9544;DHT22;30418;51.45933468;7.33152330;2023-11-19T09:48:42;13.70;78.70
9544;DHT22;30418;51.45933468;7.33152330;2023-11-19T09:51:11;13.70;78.70
9544;DHT22;30418;51.45933468;7.33152330;2023-11-19T09:53:39;13.70;78.50
9544;DHT22;30418;51.45933468;7.33152330;2023-11-19T09:56:08;13.80;78.60
9544;DHT22;30418;51.45933468;7.33152330;2023-11-19T09:58:39;13.80;78.60
9544;DHT22;30418;51.45933468;7.33152330;2023-11-19T10:01:08;13.80;78.50
9544;DHT22;30418;51.45933468;7.33152330;2023-11-19T10:03:46;13.90;78.70
9544;DHT22;30418;51.45933468;7.33152330;2023-11-19T10:06:16;13.90;78.60
9544;DHT22;30418;51.45933468;7.33152330;2023-11-19T10:08:46;13.90;78.60
9544;DHT22;30418;51.45933468;7.33152330;2023-11-19T10:11:14;13.90;78.50
9544;DHT22;30418;51.45933468;7.33152330;2023-11-19T10:13:43;13.90;78.40
9544;DHT22;30418;51.45933468;7.33152330;2023-11-19T10:16:15;14.00;78.50
9544;DHT22;30418;51.45933468;7.33152330;2023-11-19T10:18:47;14.00;78.50
9544;DHT22;30418;51.45933468;7.33152330;2023-11-19T10:21:18;14.00;78.50
9544;DHT22;30418;51.45933468;7.33152330;2023-11-19T10:23:48;14.00;78.50
9544;DHT22;30418;51.45933468;7.33152330;2023-11-19T10:26:19;14.00;78.30
9544;DHT22;30418;51.45933468;7.33152330;2023-11-19T10:28:49;14.10;78.30
9544;DHT22;30418;51.45933468;7.33152330;2023-11-19T10:31:20;14.10;78.20
9544;DHT22;30418;51.45933468;7.33152330;2023-11-19T10:33:54;14.10;78.20
9544;DHT22;30418;51.45933468;7.33152330;2023-11-19T10:36:37;14.10;78.10
9544;DHT22;30418;51.45933468;7.33152330;2023-11-19T10:39:07;14.10;77.90
9544;DHT22;30418;51.45933468;7.33152330;2023-11-19T10:41:37;14.10;77.90
9544;DHT22;30418;51.45933468;7.33152330;2023-11-19T10:44:05;14.10;77.80
9544;DHT22;30418;51.45933468;7.33152330;2023-11-19T10:46:40;14.10;77.80
9544;DHT22;30418;51.45933468;7.33152330;2023-11-19T10:49:10;14.10;77.50
9544;DHT22;30418;51.45933468;7.33152330;2023-11-19T10:51:42;14.10;77.60
9544;DHT22;30418;51.45933468;7.33152330;2023-11-19T10:54:16;14.10;77.40
9544;DHT22;30418;51.45933468;7.33152330;2023-11-19T10:56:54;14.10;77.40
9544;DHT22;30418;51.45933468;7.33152330;2023-11-19T10:59:25;14.10;77.40
9544;DHT22;30418;51.45933468;7.33152330;2023-11-19T11:02:03;14.10;77.30
9544;DHT22;30418;51.45933468;7.33152330;2023-11-19T11:04:39;14.10;77.40
9544;DHT22;30418;51.45933468;7.33152330;2023-11-19T11:07:09;14.10;77.30
9544;DHT22;30418;51.45933468;7.33152330;2023-11-19T11:09:38;14.10;77.30
9544;DHT22;30418;51.45933468;7.33152330;2023-11-19T11:12:09;14.20;77.30
9544;DHT22;30418;51.45933468;7.33152330;2023-11-19T11:14:38;14.20;77.30
9544;DHT22;30418;51.45933468;7.33152330;2023-11-19T11:17:09;14.20;77.20
9544;DHT22;30418;51.45933468;7.33152330;2023-11-19T11:19:42;14.20;77.10
9544;DHT22;30418;51.45933468;7.33152330;2023-11-19T11:22:12;14.20;77.00
9544;DHT22;30418;51.45933468;7.33152330;2023-11-19T11:25:13;14.20;77.00
9544;DHT22;30418;51.45933468;7.33152330;2023-11-19T11:28:01;14.20;77.00
9544;DHT22;30418;51.45933468;7.33152330;2023-11-19T11:30:46;14.20;77.00
9544;DHT22;30418;51.45933468;7.33152330;2023-11-19T11:33:32;14.20;77.00
9544;DHT22;30418;51.45933468;7.33152330;2023-11-19T11:36:18;14.20;77.00
9544;DHT22;30418;51.45933468;7.33152330;2023-11-19T11:38:49;14.20;76.80
9544;DHT22;30418;51.45933468;7.33152330;2023-11-19T11:41:21;14.20;77.00
9544;DHT22;30418;51.45933468;7.33152330;2023-11-19T11:43:55;14.20;76.80
9544;DHT22;30418;51.45933468;7.33152330;2023-11-19T11:46:54;14.20;76.80
9544;DHT22;30418;51.45933468;7.33152330;2023-11-19T11:49:27;14.30;76.70
9544;DHT22;30418;51.45933468;7.33152330;2023-11-19T11:52:13;14.30;76.70
9544;DHT22;30418;51.45933468;7.33152330;2023-11-19T11:54:43;14.20;76.70
9544;DHT22;30418;51.45933468;7.33152330;2023-11-19T11:57:13;14.30;76.90
9544;DHT22;30418;51.45933468;7.33152330;2023-11-19T11:59:46;14.40;77.00
9544;DHT22;30418;51.45933468;7.33152330;2023-11-19T12:02:16;14.40;77.00
9544;DHT22;30418;51.45933468;7.33152330;2023-11-19T12:04:49;14.40;76.80
9544;DHT22;30418;51.45933468;7.33152330;2023-11-19T12:07:22;14.50;76.70
9544;DHT22;30418;51.45933468;7.33152330;2023-11-19T12:09:53;14.50;76.60
9544;DHT22;30418;51.45933468;7.33152330;2023-11-19T12:12:26;14.50;76.30
9544;DHT22;30418;51.45933468;7.33152330;2023-11-19T12:15:06;14.50;76.30
9544;DHT22;30418;51.45933468;7.33152330;2023-11-19T12:17:42;14.60;76.10
9544;DHT22;30418;51.45933468;7.33152330;2023-11-19T12:20:18;14.50;75.40
9544;DHT22;30418;51.45933468;7.33152330;2023-11-19T12:22:53;14.60;75.60
9544;DHT22;30418;51.45933468;7.33152330;2023-11-19T12:25:22;14.60;75.60
9544;DHT22;30418;51.45933468;7.33152330;2023-11-19T12:27:51;14.60;75.60
9544;DHT22;30418;51.45933468;7.33152330;2023-11-19T12:30:23;14.60;75.50
9544;DHT22;30418;51.45933468;7.33152330;2023-11-19T12:32:55;14.60;75.50
9544;DHT22;30418;51.45933468;7.33152330;2023-11-19T12:35:28;14.60;75.40
9544;DHT22;30418;51.45933468;7.33152330;2023-11-19T12:38:00;14.60;75.40
9544;DHT22;30418;51.45933468;7.33152330;2023-11-19T12:40:31;14.60;75.10
9544;DHT22;30418;51.45933468;7.33152330;2023-11-19T12:43:10;14.60;74.90
9544;DHT22;30418;51.45933468;7.33152330;2023-11-19T12:45:49;14.60;75.00
9544;DHT22;30418;51.45933468;7.33152330;2023-11-19T12:48:18;14.60;74.90
9544;DHT22;30418;51.45933468;7.33152330;2023-11-19T12:50:53;14.60;75.00
9544;DHT22;30418;51.45933468;7.33152330;2023-11-19T12:53:24;14.60;74.80
9544;DHT22;30418;51.45933468;7.33152330;2023-11-19T12:55:54;14.60;74.90
9544;DHT22;30418;51.45933468;7.33152330;2023-11-19T12:58:30;14.60;74.90
9544;DHT22;30418;51.45933468;7.33152330;2023-11-19T13:01:01;14.60;74.70
9544;DHT22;30418;51.45933468;7.33152330;2023-11-19T13:03:31;14.60;74.90
9544;DHT22;30418;51.45933468;7.33152330;2023-11-19T13:06:04;14.60;74.70
9544;DHT22;30418;51.45933468;7.33152330;2023-11-19T13:08:41;14.60;74.50
9544;DHT22;30418;51.45933468;7.33152330;2023-11-19T13:11:12;14.60;74.80
9544;DHT22;30418;51.45933468;7.33152330;2023-11-19T13:13:54;14.60;74.90
9544;DHT22;30418;51.45933468;7.33152330;2023-11-19T13:16:24;14.60;75.00
9544;DHT22;30418;51.45933468;7.33152330;2023-11-19T13:18:54;14.50;74.90
9544;DHT22;30418;51.45933468;7.33152330;2023-11-19T13:21:24;14.50;74.90
9544;DHT22;30418;51.45933468;7.33152330;2023-11-19T13:23:54;14.50;75.00
9544;DHT22;30418;51.45933468;7.33152330;2023-11-19T13:26:23;14.50;75.10
9544;DHT22;30418;51.45933468;7.33152330;2023-11-19T13:28:51;14.40;75.10
9544;DHT22;30418;51.45933468;7.33152330;2023-11-19T13:31:20;14.40;75.30
9544;DHT22;30418;51.45933468;7.33152330;2023-11-19T13:33:49;14.40;75.30
9544;DHT22;30418;51.45933468;7.33152330;2023-11-19T13:36:18;14.40;75.20
9544;DHT22;30418;51.45933468;7.33152330;2023-11-19T13:38:46;14.40;75.20
9544;DHT22;30418;51.45933468;7.33152330;2023-11-19T13:41:16;14.30;75.20
9544;DHT22;30418;51.45933468;7.33152330;2023-11-19T13:43:45;14.30;75.00
9544;DHT22;30418;51.45933468;7.33152330;2023-11-19T13:46:13;14.30;75.10
9544;DHT22;30418;51.45933468;7.33152330;2023-11-19T13:48:42;14.30;75.20
9544;DHT22;30418;51.45933468;7.33152330;2023-11-19T13:51:11;14.40;75.20
9544;DHT22;30418;51.45933468;7.33152330;2023-11-19T13:53:39;14.30;75.20